TimeCDT,TemperatureF,Dew PointF,Humidity,Sea Level PressureIn,VisibilityMPH,Wind Direction,Wind SpeedMPH,Gust SpeedMPH,PrecipitationIn,Events,Conditions,WindDirDegrees,DateUTC
12:51 AM,78.1,55.0,45,29.95,10.0,NE,13.8,-,N/A,,Scattered Clouds,40,2013-06-02 05:51:00
1:51 AM,77.0,55.9,48,29.95,10.0,ENE,10.4,-,N/A,,Overcast,60,2013-06-02 06:51:00
2:51 AM,75.0,55.9,51,29.94,10.0,ENE,9.2,-,N/A,,Scattered Clouds,60,2013-06-02 07:51:00
3:51 AM,73.0,57.0,57,29.95,10.0,ENE,6.9,-,N/A,,Clear,70,2013-06-02 08:51:00
4:51 AM,72.0,57.0,59,29.96,10.0,ENE,6.9,-,N/A,,Overcast,60,2013-06-02 09:51:00
5:51 AM,70.0,57.0,63,29.96,10.0,NE,4.6,-,N/A,,Mostly Cloudy,40,2013-06-02 10:51:00
6:51 AM,70.0,57.0,63,29.99,10.0,NE,8.1,-,N/A,,Mostly Cloudy,40,2013-06-02 11:51:00
7:51 AM,71.1,55.0,57,30.03,10.0,ENE,11.5,-,N/A,,Mostly Cloudy,60,2013-06-02 12:51:00
8:51 AM,73.0,55.9,55,30.05,10.0,ENE,15.0,24.2,N/A,,Mostly Cloudy,60,2013-06-02 13:51:00
9:51 AM,75.0,57.0,53,30.06,10.0,ENE,13.8,23.0,N/A,,Scattered Clouds,60,2013-06-02 14:51:00
10:51 AM,78.1,57.9,50,30.06,10.0,East,15.0,21.9,N/A,,Scattered Clouds,100,2013-06-02 15:51:00
11:51 AM,80.1,55.9,43,30.05,10.0,East,15.0,23.0,N/A,,Clear,100,2013-06-02 16:51:00
12:51 PM,82.9,57.0,41,30.03,10.0,East,17.3,25.3,N/A,,Clear,90,2013-06-02 17:51:00
1:51 PM,84.9,57.0,38,30.00,10.0,East,15.0,23.0,N/A,,Clear,100,2013-06-02 18:51:00
2:51 PM,87.1,55.0,33,29.98,10.0,East,10.4,-,N/A,,Clear,90,2013-06-02 19:51:00
3:51 PM,88.0,53.1,30,29.95,10.0,Variable,5.8,-,N/A,,Clear,0,2013-06-02 20:51:00
4:51 PM,89.1,52.0,28,29.91,10.0,SSE,10.4,-,N/A,,Clear,150,2013-06-02 21:51:00
5:51 PM,90.0,53.1,28,29.89,10.0,SE,9.2,16.1,N/A,,Clear,140,2013-06-02 22:51:00
6:51 PM,90.0,52.0,27,29.87,10.0,SE,11.5,-,N/A,,Clear,140,2013-06-02 23:51:00
7:51 PM,88.0,50.0,27,29.85,10.0,SE,10.4,-,N/A,,Clear,130,2013-06-03 00:51:00
8:51 PM,84.0,48.9,29,29.85,10.0,ESE,8.1,-,N/A,,Clear,120,2013-06-03 01:51:00
9:51 PM,81.0,50.0,34,29.87,10.0,ESE,8.1,-,N/A,,Clear,120,2013-06-03 02:51:00
10:51 PM,78.1,53.1,42,29.91,10.0,East,8.1,-,N/A,,Clear,100,2013-06-03 03:51:00
11:51 PM,75.9,53.1,45,29.92,10.0,East,6.9,-,N/A,,Clear,100,2013-06-03 04:51:00